createdAt,value
2019-02-16T00:02:01.832Z,83.30
2019-02-16T00:04:31.240Z,83.50
2019-02-16T00:07:00.665Z,83.80
2019-02-16T00:09:30.183Z,83.40
2019-02-16T00:11:59.590Z,83.20
2019-02-16T00:14:29.288Z,83.20
2019-02-16T00:16:58.675Z,83.10
2019-02-16T00:19:28.128Z,83.30
2019-02-16T00:21:57.503Z,83.00
2019-02-16T00:24:26.951Z,82.90
2019-02-16T00:26:59.008Z,82.70
2019-02-16T00:29:28.410Z,82.60
2019-02-16T00:31:57.828Z,82.50
2019-02-16T00:34:27.235Z,82.60
2019-02-16T00:36:56.598Z,82.50
2019-02-16T00:39:26.040Z,82.60
2019-02-16T00:41:55.524Z,82.80
2019-02-16T00:44:24.931Z,82.80
2019-02-16T00:46:54.310Z,83.00
2019-02-16T00:49:23.729Z,83.40
2019-02-16T00:51:53.086Z,83.60
2019-02-16T00:54:22.762Z,83.70
2019-02-16T00:56:52.171Z,83.90
2019-02-16T00:59:21.589Z,84.10
2019-02-16T01:01:50.977Z,84.30
2019-02-16T01:04:20.399Z,84.30
2019-02-16T01:06:50.098Z,84.30
2019-02-16T01:09:20.025Z,84.40
2019-02-16T01:11:50.113Z,84.80
2019-02-16T01:14:20.649Z,85.30
2019-02-16T01:16:50.191Z,85.10
2019-02-16T01:19:21.427Z,84.80
2019-02-16T01:21:50.847Z,84.60
2019-02-16T01:24:20.313Z,84.40
2019-02-16T01:26:49.679Z,84.50
2019-02-16T01:29:19.050Z,84.20
2019-02-16T01:31:48.520Z,84.20
2019-02-16T01:34:17.894Z,84.10
2019-02-16T01:36:47.287Z,84.10
2019-02-16T01:39:16.690Z,84.30
2019-02-16T01:41:47.556Z,84.30
2019-02-16T01:44:17.478Z,84.40
2019-02-16T01:46:47.208Z,84.50
2019-02-16T01:49:16.598Z,84.80
2019-02-16T01:51:46.175Z,84.80
2019-02-16T01:54:15.593Z,84.60
2019-02-16T01:56:45.036Z,84.50
2019-02-16T01:59:14.680Z,84.40
2019-02-16T02:01:44.073Z,84.30
2019-02-16T02:04:13.467Z,84.00
2019-02-16T02:06:43.146Z,83.70
2019-02-16T02:09:12.640Z,83.60
2019-02-16T02:11:42.026Z,83.40
2019-02-16T02:14:11.416Z,83.30
2019-02-16T02:16:40.813Z,83.20
2019-02-16T02:19:10.220Z,83.30
2019-02-16T02:21:41.379Z,83.30
2019-02-16T02:24:11.323Z,83.30
2019-02-16T02:26:40.699Z,83.40
2019-02-16T02:29:10.432Z,83.40
2019-02-16T02:31:39.792Z,83.40
2019-02-16T02:34:09.175Z,83.50
2019-02-16T02:36:38.546Z,83.50
2019-02-16T02:39:07.941Z,83.60
2019-02-16T02:41:37.311Z,83.70
2019-02-16T02:44:06.709Z,83.70
2019-02-16T02:46:36.075Z,83.70
2019-02-16T02:49:05.458Z,83.60
2019-02-16T02:51:34.872Z,83.50
2019-02-16T02:54:04.272Z,83.40
2019-02-16T02:56:33.639Z,83.40
2019-02-16T02:59:03.335Z,83.40
2019-02-16T03:01:32.710Z,83.40
2019-02-16T03:04:02.087Z,83.90
2019-02-16T03:06:31.495Z,82.80
2019-02-16T03:09:00.871Z,82.70
2019-02-16T03:11:30.712Z,82.50
2019-02-16T03:14:00.071Z,82.60
2019-02-16T03:16:29.571Z,82.30
2019-02-16T03:18:59.044Z,82.10
2019-02-16T03:21:30.040Z,82.00
2019-02-16T03:23:59.701Z,81.90
2019-02-16T03:26:59.897Z,81.70
2019-02-16T03:29:40.328Z,82.60
2019-02-16T03:32:53.652Z,81.50
2019-02-16T03:35:33.267Z,81.50
2019-02-16T03:38:15.232Z,81.20
2019-02-16T03:40:48.909Z,81.00
2019-02-16T03:43:18.267Z,80.80
2019-02-16T03:45:47.643Z,80.90
2019-02-16T03:48:17.121Z,80.90
2019-02-16T03:50:46.487Z,80.90
2019-02-16T03:53:15.861Z,80.70
2019-02-16T03:55:45.233Z,80.60
2019-02-16T03:58:14.602Z,80.60
2019-02-16T04:00:44.071Z,80.50
2019-02-16T04:03:13.424Z,80.50
2019-02-16T04:05:42.791Z,80.30
2019-02-16T04:08:13.501Z,80.10
2019-02-16T04:10:42.871Z,80.30
2019-02-16T04:13:12.238Z,80.30
2019-02-16T04:15:41.595Z,80.20
2019-02-16T04:18:11.256Z,80.30
2019-02-16T04:20:40.718Z,80.20
2019-02-16T04:23:10.056Z,80.00
2019-02-16T04:25:39.523Z,80.00
2019-02-16T04:28:08.960Z,79.80
2019-02-16T04:30:38.350Z,79.70
2019-02-16T04:33:07.687Z,79.40
2019-02-16T04:35:38.184Z,79.60
2019-02-16T04:38:08.423Z,79.00
2019-02-16T04:40:38.798Z,78.80
2019-02-16T04:43:08.477Z,78.60
2019-02-16T04:45:38.508Z,78.30
2019-02-16T04:48:08.770Z,78.10
2019-02-16T04:50:38.162Z,78.00
2019-02-16T04:53:07.541Z,78.00
2019-02-16T04:55:37.253Z,77.80
2019-02-16T04:58:06.618Z,77.80
2019-02-16T05:00:36.052Z,78.40
2019-02-16T05:03:05.401Z,77.20
2019-02-16T05:05:34.809Z,77.20
2019-02-16T05:08:04.214Z,76.80
2019-02-16T05:10:33.602Z,76.60
2019-02-16T05:13:03.010Z,76.80
2019-02-16T05:15:32.651Z,76.50
2019-02-16T05:18:02.026Z,76.30
2019-02-16T05:20:31.665Z,76.50
2019-02-16T05:23:01.036Z,76.50
2019-02-16T05:25:30.414Z,76.50
2019-02-16T05:27:59.879Z,76.60
2019-02-16T05:30:29.364Z,76.60
2019-02-16T05:32:59.037Z,76.60
2019-02-16T05:35:28.503Z,76.60
2019-02-16T05:37:58.200Z,76.60
2019-02-16T05:40:28.006Z,76.60
2019-02-16T05:42:58.981Z,76.70
2019-02-16T05:45:31.880Z,76.50
2019-02-16T05:48:01.575Z,76.70
2019-02-16T05:50:31.093Z,76.70
2019-02-16T05:53:00.578Z,76.90
2019-02-16T05:55:30.410Z,77.20
2019-02-16T05:58:00.327Z,77.60
2019-02-16T06:00:31.604Z,77.60
2019-02-16T06:03:01.131Z,77.60
2019-02-16T06:05:31.967Z,77.50
2019-02-16T06:08:01.516Z,77.60
2019-02-16T06:10:30.912Z,77.60
2019-02-16T06:13:00.309Z,77.80
2019-02-16T06:15:29.795Z,77.90
2019-02-16T06:17:59.266Z,78.10
2019-02-16T06:20:28.726Z,78.10
2019-02-16T06:23:04.391Z,78.40
2019-02-16T06:25:29.292Z,78.60
2019-02-16T06:27:58.688Z,78.90
2019-02-16T06:30:28.639Z,79.30
2019-02-16T06:32:58.124Z,79.00
2019-02-16T06:35:32.358Z,79.30
2019-02-16T06:38:01.780Z,79.50
2019-02-16T06:40:31.403Z,79.50
2019-02-16T06:43:00.795Z,79.50
2019-02-16T06:45:32.138Z,79.60
2019-02-16T06:48:01.536Z,79.40
2019-02-16T06:50:36.997Z,79.30
2019-02-16T06:53:12.587Z,79.20
2019-02-16T06:55:43.046Z,79.10
2019-02-16T06:58:12.460Z,79.20
2019-02-16T07:00:42.085Z,79.40
2019-02-16T07:03:12.345Z,79.40
2019-02-16T07:05:41.790Z,79.40
2019-02-16T07:08:11.251Z,79.60
2019-02-16T07:10:40.735Z,79.40
2019-02-16T07:13:10.985Z,79.40
2019-02-16T07:15:40.569Z,79.30
2019-02-16T07:18:24.319Z,79.60
2019-02-16T07:20:53.836Z,78.50
2019-02-16T07:23:23.326Z,78.00
2019-02-16T07:25:52.977Z,78.00
2019-02-16T07:28:22.813Z,76.80
2019-02-16T07:30:53.139Z,76.10
2019-02-16T07:33:22.752Z,75.20
2019-02-16T07:35:52.212Z,74.00
2019-02-16T07:38:22.221Z,73.80
2019-02-16T07:40:53.291Z,73.10
2019-02-16T07:43:40.481Z,72.40
2019-02-16T07:46:14.506Z,71.90
2019-02-16T07:48:47.825Z,71.30
2019-02-16T07:51:20.465Z,70.50
2019-02-16T07:54:09.424Z,69.90
2019-02-16T07:56:43.431Z,69.30
2019-02-16T07:59:16.494Z,68.60
2019-02-16T08:01:47.563Z,67.50
2019-02-16T08:04:20.507Z,66.30
2019-02-16T08:06:54.487Z,65.90
2019-02-16T08:09:25.712Z,64.40
2019-02-16T08:12:00.435Z,63.10
2019-02-16T08:14:33.320Z,62.50
2019-02-16T08:17:19.522Z,61.40
2019-02-16T08:19:53.445Z,60.00
2019-02-16T08:22:24.920Z,59.80
2019-02-16T08:25:00.299Z,59.80
2019-02-16T08:27:44.282Z,58.80
2019-02-16T08:30:21.623Z,58.20
2019-02-16T08:33:08.945Z,57.20
2019-02-16T08:35:52.838Z,56.70
2019-02-16T08:38:33.218Z,56.20
2019-02-16T08:41:10.011Z,55.80
2019-02-16T08:43:47.155Z,55.30
2019-02-16T08:46:22.525Z,55.10
2019-02-16T08:48:59.422Z,54.50
2019-02-16T08:51:44.184Z,54.60
2019-02-16T08:54:33.783Z,54.50
2019-02-16T08:57:25.825Z,54.50
2019-02-16T09:00:04.783Z,54.30
2019-02-16T09:02:38.576Z,54.00
2019-02-16T09:05:30.863Z,53.80
2019-02-16T09:08:22.068Z,53.80
2019-02-16T09:10:53.398Z,53.20
2019-02-16T09:13:27.717Z,52.90
2019-02-16T09:16:09.595Z,52.40
2019-02-16T09:18:47.277Z,51.10
2019-02-16T09:21:27.764Z,51.50
2019-02-16T09:24:08.417Z,50.80
2019-02-16T09:26:45.549Z,51.20
2019-02-16T09:29:16.673Z,50.00
2019-02-16T09:31:50.422Z,50.10
2019-02-16T09:34:23.546Z,49.60
2019-02-16T09:36:55.006Z,49.90
2019-02-16T09:39:26.367Z,50.00
2019-02-16T09:42:06.120Z,49.70
2019-02-16T09:44:39.104Z,49.10
2019-02-16T09:47:13.135Z,50.00
2019-02-16T09:49:50.692Z,49.80
2019-02-16T09:52:26.218Z,49.40
2019-02-16T09:55:13.735Z,49.30
2019-02-16T09:57:47.554Z,47.70
2019-02-16T10:00:18.817Z,47.70
2019-02-16T10:02:50.013Z,47.70
2019-02-16T10:05:34.144Z,47.70
2019-02-16T10:08:21.587Z,46.90
2019-02-16T10:10:55.664Z,46.70
2019-02-16T10:13:43.349Z,46.10
2019-02-16T10:16:33.645Z,45.40
2019-02-16T10:19:24.261Z,45.00
2019-02-16T10:21:58.161Z,45.10
2019-02-16T10:24:29.330Z,44.90
2019-02-16T10:27:03.159Z,44.90
2019-02-16T10:29:34.469Z,44.80
2019-02-16T10:32:08.699Z,44.90
2019-02-16T10:34:48.936Z,44.70
2019-02-16T10:37:23.327Z,44.80
2019-02-16T10:39:54.669Z,44.30
2019-02-16T10:42:37.732Z,44.30
2019-02-16T10:45:27.885Z,43.90
2019-02-16T10:48:08.004Z,43.80
2019-02-16T10:50:39.663Z,43.80
2019-02-16T10:53:10.992Z,43.30
2019-02-16T10:55:49.181Z,43.30
2019-02-16T10:58:28.904Z,43.40
2019-02-16T11:01:02.863Z,43.50
2019-02-16T11:03:49.777Z,42.90
2019-02-16T11:06:42.130Z,42.20
2019-02-16T11:09:14.169Z,42.40
2019-02-16T11:11:54.755Z,42.90
2019-02-16T11:14:42.292Z,42.80
2019-02-16T11:17:27.840Z,42.90
2019-02-16T11:20:14.630Z,43.00
2019-02-16T11:22:45.777Z,42.10
2019-02-16T11:25:19.914Z,42.80
2019-02-16T11:27:51.514Z,42.20
2019-02-16T11:30:38.872Z,42.60
2019-02-16T11:33:15.865Z,42.10
2019-02-16T11:35:53.673Z,42.20
2019-02-16T11:38:40.619Z,42.30
2019-02-16T11:41:18.668Z,42.30
2019-02-16T11:43:57.036Z,42.50
2019-02-16T11:46:34.201Z,41.90
2019-02-16T11:49:08.435Z,41.50
2019-02-16T11:51:43.596Z,40.10
2019-02-16T11:54:23.558Z,41.70
2019-02-16T11:57:03.472Z,41.00
2019-02-16T11:59:46.631Z,41.50
2019-02-16T12:02:23.130Z,39.70
2019-02-16T12:04:57.153Z,40.00
2019-02-16T12:07:28.292Z,41.10
2019-02-16T12:10:14.616Z,41.30
2019-02-16T12:13:02.167Z,41.50
2019-02-16T12:15:42.441Z,41.70
2019-02-16T12:18:19.383Z,41.50
2019-02-16T12:20:56.363Z,41.30
2019-02-16T12:23:35.404Z,41.90
2019-02-16T12:26:12.299Z,41.60
2019-02-16T12:28:47.943Z,42.10
2019-02-16T12:31:19.067Z,42.20
2019-02-16T12:33:52.864Z,42.40
2019-02-16T12:36:30.196Z,42.30
2019-02-16T12:39:05.099Z,42.70
2019-02-16T12:41:52.602Z,43.40
2019-02-16T12:44:23.895Z,43.20
2019-02-16T12:47:00.406Z,43.40
2019-02-16T12:49:31.617Z,43.60
2019-02-16T12:52:20.775Z,43.50
2019-02-16T12:54:52.725Z,43.90
2019-02-16T12:57:24.144Z,44.20
2019-02-16T12:59:57.917Z,44.30
2019-02-16T13:02:29.153Z,44.60
2019-02-16T13:05:03.467Z,44.70
2019-02-16T13:07:37.345Z,44.60
2019-02-16T13:10:14.180Z,44.50
2019-02-16T13:12:46.736Z,44.90
2019-02-16T13:15:30.232Z,45.00
2019-02-16T13:18:10.178Z,45.10
2019-02-16T13:20:54.254Z,45.10
2019-02-16T13:23:25.441Z,45.10
2019-02-16T13:26:04.055Z,45.20
2019-02-16T13:28:40.905Z,45.10
2019-02-16T13:31:14.981Z,45.30
2019-02-16T13:33:46.242Z,45.20
2019-02-16T13:36:29.335Z,44.90
2019-02-16T13:39:03.417Z,45.10
2019-02-16T13:41:34.823Z,45.40
2019-02-16T13:44:09.137Z,45.30
2019-02-16T13:46:40.302Z,45.20
2019-02-16T13:49:11.865Z,45.40
2019-02-16T13:51:59.844Z,45.10
2019-02-16T13:54:34.166Z,45.20
2019-02-16T13:57:17.577Z,45.70
2019-02-16T13:59:54.821Z,45.40
2019-02-16T14:02:28.810Z,45.70
2019-02-16T14:05:02.617Z,45.20
2019-02-16T14:07:33.787Z,45.40
2019-02-16T14:10:07.561Z,45.60
2019-02-16T14:12:48.245Z,45.60
2019-02-16T14:15:29.639Z,45.50
2019-02-16T14:17:59.230Z,45.60
2019-02-16T14:20:28.782Z,45.80
2019-02-16T14:22:58.286Z,45.40
2019-02-16T14:25:42.732Z,45.80
2019-02-16T14:28:06.896Z,45.90
2019-02-16T14:30:36.317Z,45.80
2019-02-16T14:33:08.846Z,46.00
2019-02-16T14:35:38.489Z,45.90
2019-02-16T14:38:13.028Z,45.90
2019-02-16T14:40:44.367Z,46.10
2019-02-16T14:43:18.599Z,45.80
2019-02-16T14:45:48.187Z,45.60
2019-02-16T14:48:17.833Z,45.80
2019-02-16T14:50:47.265Z,45.80
2019-02-16T14:53:16.681Z,46.00
2019-02-16T14:55:53.830Z,46.20
2019-02-16T14:58:17.699Z,46.50
2019-02-16T15:00:47.245Z,46.60
2019-02-16T15:03:17.080Z,46.70
2019-02-16T15:05:51.300Z,46.70
2019-02-16T15:08:20.984Z,47.10
2019-02-16T15:10:50.818Z,47.00
2019-02-16T15:13:20.596Z,47.20
2019-02-16T15:15:50.131Z,47.30
2019-02-16T15:18:19.880Z,47.50
2019-02-16T15:20:50.359Z,47.60
2019-02-16T15:23:19.919Z,47.80
2019-02-16T15:25:49.797Z,48.00
2019-02-16T15:28:19.603Z,48.10
2019-02-16T15:30:49.458Z,48.20
2019-02-16T15:33:18.856Z,48.30
2019-02-16T15:35:48.620Z,48.50
2019-02-16T15:38:18.021Z,48.60
2019-02-16T15:40:47.543Z,48.20
2019-02-16T15:43:17.284Z,48.70
2019-02-16T15:45:46.997Z,49.30
2019-02-16T15:48:16.849Z,49.00
2019-02-16T15:50:46.295Z,49.10
2019-02-16T15:53:15.794Z,49.20
2019-02-16T15:55:53.267Z,49.30
2019-02-16T15:58:22.757Z,49.30
2019-02-16T16:00:52.406Z,49.30
2019-02-16T16:03:21.913Z,49.20
2019-02-16T16:05:51.712Z,49.20
2019-02-16T16:08:25.416Z,49.30
2019-02-16T16:11:05.151Z,49.40
2019-02-16T16:13:41.795Z,49.40
2019-02-16T16:16:15.769Z,49.60
2019-02-16T16:18:47.122Z,49.60
2019-02-16T16:21:34.828Z,49.80
2019-02-16T16:24:06.178Z,50.00
2019-02-16T16:26:53.557Z,50.20
2019-02-16T16:29:40.207Z,50.30
2019-02-16T16:32:11.281Z,50.50
2019-02-16T16:35:00.680Z,50.60
2019-02-16T16:37:37.574Z,50.80
2019-02-16T16:40:15.511Z,51.10
2019-02-16T16:43:05.512Z,51.20
2019-02-16T16:45:36.713Z,51.40
2019-02-16T16:48:07.992Z,51.50
2019-02-16T16:50:50.909Z,51.90
2019-02-16T16:53:31.427Z,52.10
2019-02-16T16:56:05.699Z,52.30
2019-02-16T16:58:39.967Z,52.70
2019-02-16T17:01:10.835Z,53.20
2019-02-16T17:03:44.821Z,53.50
2019-02-16T17:06:22.051Z,53.70
2019-02-16T17:08:53.850Z,53.90
2019-02-16T17:11:28.005Z,54.00
2019-02-16T17:13:59.318Z,54.40
2019-02-16T17:16:39.441Z,54.60
2019-02-16T17:19:21.771Z,55.10
2019-02-16T17:21:53.162Z,55.20
2019-02-16T17:24:40.435Z,55.30
2019-02-16T17:27:11.564Z,55.40
2019-02-16T17:29:42.942Z,55.70
2019-02-16T17:32:16.832Z,56.00
2019-02-16T17:35:04.485Z,56.30
2019-02-16T17:37:35.477Z,56.50
2019-02-16T17:40:14.257Z,56.70
2019-02-16T17:42:51.199Z,56.90
2019-02-16T17:45:23.034Z,57.30
2019-02-16T17:48:03.193Z,57.70
2019-02-16T17:50:34.333Z,58.00
2019-02-16T17:53:11.417Z,58.00
2019-02-16T17:55:48.147Z,58.30
2019-02-16T17:58:21.752Z,58.70
2019-02-16T18:00:52.865Z,59.20
2019-02-16T18:03:40.786Z,59.50
2019-02-16T18:06:20.875Z,59.20
2019-02-16T18:09:01.602Z,59.30
2019-02-16T18:11:38.461Z,59.10
2019-02-16T18:14:15.261Z,59.00
2019-02-16T18:16:46.294Z,59.00
2019-02-16T18:19:17.366Z,59.20
2019-02-16T18:21:48.419Z,59.30
2019-02-16T18:24:25.250Z,59.30
2019-02-16T18:26:56.997Z,59.30
2019-02-16T18:29:28.429Z,59.40
2019-02-16T18:32:02.000Z,59.50
2019-02-16T18:34:33.923Z,59.70
2019-02-16T18:37:13.897Z,59.80
2019-02-16T18:40:02.329Z,60.00
2019-02-16T18:42:36.351Z,60.20
2019-02-16T18:45:11.894Z,60.60
2019-02-16T18:47:47.681Z,60.90
2019-02-16T18:50:22.960Z,62.10
2019-02-16T18:53:08.840Z,61.60
2019-02-16T18:58:35.748Z,61.60
2019-02-16T19:01:06.798Z,61.60
2019-02-16T19:03:43.406Z,61.80
2019-02-16T19:06:30.778Z,62.10
2019-02-16T19:09:01.758Z,62.40
2019-02-16T19:11:48.218Z,62.80
2019-02-16T19:14:20.381Z,63.20
2019-02-16T19:16:54.111Z,63.70
2019-02-16T19:19:34.044Z,64.00
2019-02-16T19:22:10.745Z,64.40
2019-02-16T19:24:44.407Z,64.50
2019-02-16T19:27:20.978Z,64.80
2019-02-16T19:30:01.187Z,65.10
2019-02-16T19:32:35.195Z,65.30
2019-02-16T19:35:07.040Z,65.60
2019-02-16T19:37:40.843Z,65.90
2019-02-16T19:40:17.594Z,66.20
2019-02-16T19:42:48.939Z,66.50
2019-02-16T19:45:22.783Z,67.20
2019-02-16T19:47:53.801Z,67.90
2019-02-16T19:50:27.753Z,67.80
2019-02-16T19:52:58.770Z,68.00
2019-02-16T19:55:35.235Z,68.10
2019-02-16T19:58:06.497Z,68.90
2019-02-16T20:00:37.523Z,68.70
2019-02-16T20:03:11.262Z,69.30
2019-02-16T20:05:58.669Z,69.80
2019-02-16T20:08:41.502Z,70.10
2019-02-16T20:11:15.291Z,70.30
2019-02-16T20:13:46.298Z,69.90
2019-02-16T20:16:17.351Z,69.70
2019-02-16T20:19:00.130Z,70.50
2019-02-16T20:21:36.932Z,70.60
2019-02-16T20:24:07.945Z,70.60
2019-02-16T20:26:57.303Z,70.70
2019-02-16T20:29:31.006Z,70.60
2019-02-16T20:32:02.339Z,70.10
2019-02-16T20:34:58.782Z,70.50
2019-02-16T20:37:35.620Z,70.60
2019-02-16T20:40:23.995Z,70.60
2019-02-16T20:43:10.021Z,70.60
2019-02-16T20:45:41.091Z,71.40
2019-02-16T20:48:14.864Z,70.60
2019-02-16T20:50:45.921Z,70.90
2019-02-16T20:53:34.926Z,71.80
2019-02-16T20:56:18.011Z,71.30
2019-02-16T20:59:05.210Z,71.50
2019-02-16T21:01:38.763Z,71.80
2019-02-16T21:04:09.776Z,72.10
2019-02-16T21:06:49.956Z,72.60
2019-02-16T21:09:23.722Z,73.30
2019-02-16T21:11:57.378Z,73.50
2019-02-16T21:14:28.393Z,73.20
2019-02-16T21:17:02.107Z,74.10
2019-02-16T21:19:38.741Z,74.90
2019-02-16T21:22:25.721Z,75.00
2019-02-16T21:24:56.740Z,74.70
2019-02-16T21:27:28.006Z,74.90
2019-02-16T21:29:59.033Z,76.20
2019-02-16T21:32:30.078Z,76.20
2019-02-16T21:35:01.083Z,76.10
2019-02-16T21:37:43.597Z,76.30
2019-02-16T21:40:17.295Z,75.80
2019-02-16T21:42:54.335Z,75.70
2019-02-16T21:45:25.348Z,75.40
2019-02-16T21:48:05.489Z,75.80
2019-02-16T21:50:52.841Z,75.70
2019-02-16T21:53:26.970Z,75.50
2019-02-16T21:56:13.937Z,75.20
2019-02-16T21:58:47.382Z,75.20
2019-02-16T22:01:18.397Z,75.60
2019-02-16T22:03:49.448Z,76.10
2019-02-16T22:06:23.500Z,76.50
2019-02-16T22:09:00.270Z,76.40
2019-02-16T22:11:31.610Z,76.10
2019-02-16T22:14:00.996Z,75.60
2019-02-16T22:16:30.708Z,76.30
2019-02-16T22:19:00.086Z,76.00
2019-02-16T22:21:29.454Z,75.50
2019-02-16T22:23:58.852Z,75.40
2019-02-16T22:26:28.208Z,75.50
2019-02-16T22:28:57.600Z,75.00
2019-02-16T22:31:27.743Z,75.10
2019-02-16T22:33:57.141Z,75.30
2019-02-16T22:36:26.587Z,75.80
2019-02-16T22:38:56.392Z,75.90
2019-02-16T22:41:25.827Z,75.90
2019-02-16T22:43:55.200Z,75.90
2019-02-16T22:46:24.583Z,75.80
2019-02-16T22:48:57.789Z,75.80
2019-02-16T22:51:27.158Z,76.00
2019-02-16T22:53:56.544Z,76.40
2019-02-16T22:56:25.947Z,76.20
2019-02-16T22:58:55.324Z,76.30
2019-02-16T23:01:25.279Z,76.40
2019-02-16T23:03:58.581Z,76.60
2019-02-16T23:06:28.427Z,76.70
2019-02-16T23:08:58.162Z,76.40
2019-02-16T23:11:27.796Z,76.30
2019-02-16T23:16:53.267Z,76.20
2019-02-16T23:19:25.044Z,76.10
2019-02-16T23:21:54.402Z,76.50
2019-02-16T23:24:23.794Z,76.70
2019-02-16T23:26:53.171Z,77.00
2019-02-16T23:29:22.555Z,76.80
2019-02-16T23:31:51.935Z,77.00
2019-02-16T23:34:21.311Z,76.90
2019-02-16T23:36:51.059Z,76.70
2019-02-16T23:39:20.620Z,76.70
2019-02-16T23:41:50.189Z,76.80
2019-02-16T23:44:19.625Z,76.70
2019-02-16T23:46:51.417Z,76.50
2019-02-16T23:49:20.185Z,76.10
2019-02-16T23:51:49.555Z,75.90
2019-02-16T23:54:18.931Z,75.80
2019-02-16T23:56:48.333Z,75.80
2019-02-16T23:59:17.761Z,75.80
